Barmouth, United Kingdom
Current Conditions -  °F | °C
As of 6:50 PM on Thursday 30 Oct 2014 (Local Time) from EGOV Reporting Station
Overcast Overcast  
Wind Chill: 59°   Ceiling: 3300
Heat Index: 59°   Visibility: 6mi
Dew Point: 57°   Wind: 20mph
Humidity: 94%   Direction: 180°S
Pressure: 29.88"   Gusts: NA
Location:  52.72°N, 4.06°W
Report Text: EGOV 301850Z 18017KT 9999 SCT014 OVC033 15/14 Q1012 GRN
Loading
Personal Weather Stations






























Interactive Weather Map
Tropical Storm Tracking
New forecast layout! Learn more

10-Day Weather Forecast

Advertisements
Track Severe Weather on mobile